Longleaf, Louisiana
Current Conditions -  °F | °C
As of 8:55 PM on Sunday 23 Nov 2014 (Local Time) from KACP Reporting Station
Clear Clear  
Wind Chill: 64°   Ceiling: Unl
Heat Index: 64°   Visibility: 10mi
Dew Point: 61°   Wind: 7mph
Humidity: 91%   Direction: 190°S
Pressure: 29.65"   Gusts: NA
Location:  31.01°N, 92.55°W
Report Text: KACP 240255Z AUTO 19006KT 10SM CLR 18/16 A2965 RMK AO2 T01750161
Loading
Personal Weather Stations






























Interactive Weather Map New forecast layout! Learn more

10-Day Weather Forecast

Advertisements
Track Severe Weather on mobile